Time;durP1;ratioP1;P1;durP2;ratioP2;P2;SDS_P1;SDS_P2;PMS_P1;PMS_P2;Temp;Humidity;BMP_temperature;BMP_pressure;BME280_temperature;BME280_humidity;BME280_pressure;Samples;Min_cycle;Max_cycle;Signal;HPM_P1;HPM_P2
2021/04/20 00:00:51;;;;;;;40.70;28.05;;;;;;;;;;4970760;28;20035;-66
2021/04/20 00:03:17;;;;;;;40.90;26.30;;;;;;;;;;4986368;28;20019;-65
2021/04/20 00:05:43;;;;;;;40.42;27.40;;;;;;;;;;4972157;28;20460;-63
2021/04/20 00:08:09;;;;;;;42.13;28.45;;;;;;;;;;4972507;28;20081;-65
2021/04/20 00:10:35;;;;;;;40.10;28.13;;;;;;;;;;4987422;28;20041;-65
2021/04/20 00:13:01;;;;;;;41.20;27.38;;;;;;;;;;4972444;28;20030;-63
2021/04/20 00:15:29;;;;;;;40.15;27.38;;;;;;;;;;4972460;28;20065;-64
2021/04/20 00:17:56;;;;;;;39.58;27.05;;;;;;;;;;4987271;28;20031;-63
2021/04/20 00:20:22;;;;;;;41.55;27.23;;;;;;;;;;4972196;28;20485;-63
2021/04/20 00:22:48;;;;;;;41.42;29.83;;;;;;;;;;4987227;28;20023;-64
2021/04/20 00:25:14;;;;;;;43.05;29.67;;;;;;;;;;4987049;28;20026;-64
2021/04/20 00:27:40;;;;;;;43.08;28.88;;;;;;;;;;4972166;28;20559;-63
2021/04/20 00:30:07;;;;;;;43.08;27.85;;;;;;;;;;4971951;28;20080;-59
2021/04/20 00:32:34;;;;;;;41.70;28.70;;;;;;;;;;4971966;28;20066;-64
2021/04/20 00:35:00;;;;;;;42.75;28.75;;;;;;;;;;4986752;28;20025;-64
2021/04/20 00:37:26;;;;;;;43.13;28.30;;;;;;;;;;4971962;28;20034;-65
2021/04/20 00:39:52;;;;;;;40.88;27.75;;;;;;;;;;4986748;28;20030;-64
2021/04/20 00:42:18;;;;;;;42.83;27.48;;;;;;;;;;4972181;28;20025;-64
2021/04/20 00:44:44;;;;;;;45.40;29.10;;;;;;;;;;4987133;28;20023;-65
2021/04/20 00:47:10;;;;;;;43.88;29.58;;;;;;;;;;4971883;28;20027;-64
2021/04/20 00:49:36;;;;;;;43.53;28.08;;;;;;;;;;4986838;28;20097;-64
2021/04/20 00:52:03;;;;;;;41.42;28.30;;;;;;;;;;4987126;28;20039;-64
2021/04/20 00:54:29;;;;;;;44.38;30.10;;;;;;;;;;4972192;28;20026;-65
2021/04/20 00:56:55;;;;;;;41.22;27.70;;;;;;;;;;4987960;23;20047;-66
2021/04/20 00:59:21;;;;;;;39.60;27.10;;;;;;;;;;4971259;28;20027;-65
2021/04/20 01:01:47;;;;;;;41.42;26.85;;;;;;;;;;4972102;28;20027;-67
2021/04/20 01:04:14;;;;;;;37.67;26.00;;;;;;;;;;4972088;28;20027;-67
2021/04/20 01:06:41;;;;;;;39.55;26.83;;;;;;;;;;4975824;28;20026;-66
2021/04/20 01:09:07;;;;;;;43.20;27.52;;;;;;;;;;4972893;28;20023;-66
2021/04/20 01:11:35;;;;;;;41.55;27.15;;;;;;;;;;4973214;28;20058;-66
2021/04/20 01:14:04;;;;;;;45.03;28.38;;;;;;;;;;4971924;28;20077;-67
2021/04/20 01:16:31;;;;;;;38.80;26.27;;;;;;;;;;4973123;28;20445;-66
2021/04/20 01:18:57;;;;;;;40.03;26.55;;;;;;;;;;4971616;28;20018;-66
2021/04/20 01:21:23;;;;;;;41.00;27.30;;;;;;;;;;4972919;28;20473;-66
2021/04/20 01:24:04;;;;;;;40.75;28.10;;;;;;;;;;4971810;28;20027;-65
2021/04/20 01:26:32;;;;;;;39.75;27.38;;;;;;;;;;4971491;28;20033;-66
2021/04/20 01:28:58;;;;;;;38.50;25.90;;;;;;;;;;4971462;28;20488;-66
2021/04/20 01:31:26;;;;;;;40.00;28.33;;;;;;;;;;4971545;28;20034;-66
2021/04/20 01:33:52;;;;;;;39.25;26.73;;;;;;;;;;4971557;28;20122;-65
2021/04/20 01:36:21;;;;;;;38.90;26.80;;;;;;;;;;4971624;28;20085;-66
2021/04/20 01:38:47;;;;;;;42.33;28.75;;;;;;;;;;4971249;28;20126;-66
2021/04/20 01:41:14;;;;;;;40.92;28.23;;;;;;;;;;4972864;28;20030;-67
2021/04/20 01:43:40;;;;;;;42.03;27.60;;;;;;;;;;4972899;28;20023;-66
2021/04/20 01:46:07;;;;;;;45.78;28.42;;;;;;;;;;4971338;28;20030;-66
2021/04/20 01:48:33;;;;;;;38.42;26.08;;;;;;;;;;4972701;28;20117;-66
2021/04/20 01:50:59;;;;;;;38.10;26.58;;;;;;;;;;4972615;28;20110;-66
2021/04/20 01:53:26;;;;;;;41.97;28.23;;;;;;;;;;4972693;28;20054;-65
2021/04/20 01:55:59;;;;;;;43.38;27.63;;;;;;;;;;4972684;28;20034;-65
2021/04/20 01:58:26;;;;;;;43.47;28.20;;;;;;;;;;4972534;28;20043;-65
2021/04/20 02:00:52;;;;;;;42.88;28.17;;;;;;;;;;4971327;28;20097;-65
2021/04/20 02:03:19;;;;;;;42.10;28.73;;;;;;;;;;4973191;28;20030;-65
2021/04/20 02:05:50;;;;;;;42.35;28.35;;;;;;;;;;4975923;28;20065;-64
2021/04/20 02:08:17;;;;;;;46.75;28.10;;;;;;;;;;4975149;28;20031;-67
2021/04/20 02:10:43;;;;;;;42.00;28.15;;;;;;;;;;4975971;28;20480;-66
2021/04/20 02:13:09;;;;;;;41.53;28.65;;;;;;;;;;4974904;28;20018;-66
2021/04/20 02:15:36;;;;;;;43.88;28.70;;;;;;;;;;4976206;28;20035;-66
2021/04/20 02:18:02;;;;;;;42.47;27.98;;;;;;;;;;4974647;28;20050;-65
2021/04/20 02:20:29;;;;;;;40.15;26.95;;;;;;;;;;4975816;28;20027;-66
2021/04/20 02:22:55;;;;;;;44.63;29.90;;;;;;;;;;4974925;28;20030;-65
2021/04/20 02:25:21;;;;;;;42.95;28.40;;;;;;;;;;4975847;28;20109;-66
2021/04/20 02:27:51;;;;;;;42.13;28.33;;;;;;;;;;4975624;28;20495;-66
2021/04/20 02:30:18;;;;;;;42.75;28.88;;;;;;;;;;4975876;28;20111;-66
2021/04/20 02:32:44;;;;;;;40.30;27.85;;;;;;;;;;4975769;28;20030;-65
2021/04/20 02:35:12;;;;;;;41.25;28.77;;;;;;;;;;4974371;28;20034;-65
2021/04/20 02:37:38;;;;;;;42.38;28.73;;;;;;;;;;4975613;28;20054;-65
2021/04/20 02:40:05;;;;;;;45.92;27.77;;;;;;;;;;4974035;28;20074;-66
2021/04/20 02:42:32;;;;;;;39.08;26.55;;;;;;;;;;4974389;28;20484;-65
2021/04/20 02:44:59;;;;;;;44.80;28.92;;;;;;;;;;4974230;28;20069;-65
2021/04/20 02:47:27;;;;;;;44.55;29.10;;;;;;;;;;4975291;28;20023;-65
2021/04/20 02:49:53;;;;;;;44.10;28.83;;;;;;;;;;4974091;28;20030;-65
2021/04/20 02:52:19;;;;;;;43.03;28.83;;;;;;;;;;4974460;28;20074;-66
2021/04/20 02:54:45;;;;;;;44.05;28.60;;;;;;;;;;4974070;28;20093;-66
2021/04/20 02:57:12;;;;;;;43.38;28.08;;;;;;;;;;4973845;28;20034;-66
2021/04/20 02:59:38;;;;;;;46.75;29.65;;;;;;;;;;4975077;28;20580;-66
2021/04/20 03:02:04;;;;;;;45.90;31.00;;;;;;;;;;4973916;28;20023;-66
2021/04/20 03:04:30;;;;;;;44.53;29.33;;;;;;;;;;4975241;28;20030;-65
2021/04/20 03:06:56;;;;;;;45.28;28.88;;;;;;;;;;4973791;28;20079;-65
2021/04/20 03:09:22;;;;;;;45.13;30.95;;;;;;;;;;4974882;28;20030;-65
2021/04/20 03:11:55;;;;;;;43.90;29.92;;;;;;;;;;4975093;28;20031;-66
2021/04/20 03:14:21;;;;;;;44.05;29.00;;;;;;;;;;4974240;28;20023;-67
2021/04/20 03:16:47;;;;;;;47.67;28.63;;;;;;;;;;4973414;28;20100;-65
2021/04/20 03:19:13;;;;;;;47.42;30.10;;;;;;;;;;4974560;28;20023;-65
2021/04/20 03:21:41;;;;;;;48.17;30.90;;;;;;;;;;4974807;28;20089;-65
2021/04/20 03:24:08;;;;;;;63.40;42.50;;;;;;;;;;4974754;28;20417;-66
2021/04/20 03:26:38;;;;;;;41.92;28.27;;;;;;;;;;4973263;28;20121;-65
2021/04/20 03:29:06;;;;;;;44.13;30.13;;;;;;;;;;4974519;28;20023;-65
2021/04/20 03:31:32;;;;;;;47.90;30.90;;;;;;;;;;4974527;28;20389;-66
2021/04/20 03:34:08;;;;;;;41.80;28.25;;;;;;;;;;4974765;28;20058;-66
2021/04/20 03:36:35;;;;;;;45.60;31.02;;;;;;;;;;4973271;28;20033;-66
2021/04/20 03:39:09;;;;;;;47.00;30.83;;;;;;;;;;4974161;28;20090;-66
2021/04/20 03:41:47;;;;;;;46.35;31.10;;;;;;;;;;4973214;28;20027;-65
2021/04/20 03:44:15;;;;;;;49.22;32.45;;;;;;;;;;4974131;28;20019;-65
2021/04/20 03:46:44;;;;;;;46.50;29.55;;;;;;;;;;4972726;28;20042;-66
2021/04/20 03:49:17;;;;;;;45.40;30.83;;;;;;;;;;4972948;28;20122;-67
2021/04/20 03:51:44;;;;;;;43.95;30.02;;;;;;;;;;4974299;28;20496;-65
2021/04/20 03:54:11;;;;;;;48.25;30.48;;;;;;;;;;4974272;28;20069;-65
2021/04/20 03:56:38;;;;;;;43.33;28.73;;;;;;;;;;4974115;28;20031;-65
2021/04/20 03:59:05;;;;;;;46.67;31.50;;;;;;;;;;4973955;28;20110;-65
2021/04/20 04:01:33;;;;;;;49.35;33.10;;;;;;;;;;4974119;28;20070;-65
2021/04/20 04:03:59;;;;;;;44.83;30.52;;;;;;;;;;4974064;28;20109;-64
2021/04/20 04:06:26;;;;;;;46.45;30.58;;;;;;;;;;4972703;28;20027;-65
2021/04/20 04:08:53;;;;;;;48.40;32.72;;;;;;;;;;4973583;28;20106;-65
2021/04/20 04:11:21;;;;;;;43.83;30.48;;;12.20;99.90;;;;;;4972430;28;20026;-65
2021/04/20 04:13:49;;;;;;;48.75;32.85;;;9.80;99.90;;;;;;4974473;28;20037;-65
2021/04/20 04:16:18;;;;;;;48.58;32.30;;;9.70;99.90;;;;;;4972386;28;20386;-66
2021/04/20 04:18:47;;;;;;;50.10;33.83;;;9.70;99.90;;;;;;4972105;28;20125;-66
2021/04/20 04:21:16;;;;;;;54.15;34.28;;;9.60;99.90;;;;;;4973706;28;20509;-66
2021/04/20 04:23:54;;;;;;;46.08;31.02;;;9.60;99.90;;;;;;4988606;28;20087;-66
2021/04/20 04:26:23;;;;;;;50.00;30.55;;;9.50;99.90;;;;;;4973243;28;20109;-65
2021/04/20 04:28:55;;;;;;;49.05;30.85;;;9.50;99.90;;;;;;4973709;28;20362;-66
2021/04/20 04:31:21;;;;;;;49.35;32.42;;;9.50;99.90;;;;;;4972140;28;20057;-65
2021/04/20 04:33:48;;;;;;;52.45;32.58;;;9.40;99.90;;;;;;4988408;28;20547;-65
2021/04/20 04:36:15;;;;;;;48.35;31.52;;;9.40;99.90;;;;;;4973425;28;20033;-65
2021/04/20 04:38:41;;;;;;;50.08;33.63;;;9.30;99.90;;;;;;4973270;28;20027;-66
2021/04/20 04:41:08;;;;;;;55.65;32.45;;;9.30;99.90;;;;;;4988043;28;20540;-65
2021/04/20 04:43:35;;;;;;;46.90;31.38;;;9.20;99.90;;;;;;4973736;28;20027;-65
2021/04/20 04:46:01;;;;;;;51.08;31.73;;;9.20;99.90;;;;;;4973955;28;20491;-65
2021/04/20 04:48:27;;;;;;;49.25;31.60;;;9.10;99.90;;;;;;4973898;28;20105;-64
2021/04/20 04:50:55;;;;;;;48.55;31.33;;;9.10;99.90;;;;;;4974093;28;20023;-65
2021/04/20 04:53:21;;;;;;;51.92;31.02;;;9.00;99.90;;;;;;4972113;28;20373;-65
2021/04/20 04:55:48;;;;;;;59.25;32.58;;;9.10;99.90;;;;;;4973235;28;20042;-65
2021/04/20 04:58:16;;;;;;;53.78;30.88;;;9.20;99.90;;;;;;4972710;28;20038;-64
2021/04/20 05:00:42;;;;;;;53.33;31.13;;;9.30;99.90;;;;;;4972822;28;20080;-65
2021/04/20 05:03:08;;;;;;;52.33;32.78;;;9.30;99.90;;;;;;4973003;28;20046;-66
2021/04/20 05:05:38;;;;;;;50.08;30.98;;;9.20;99.90;;;;;;4971616;28;20116;-62
2021/04/20 05:08:04;;;;;;;57.80;34.78;;;9.20;99.90;;;;;;4973036;28;20031;-65
2021/04/20 05:10:30;;;;;;;62.03;37.42;;;9.20;99.90;;;;;;4971481;28;20019;-66
2021/04/20 05:12:58;;;;;;;50.47;31.85;;;9.20;99.90;;;;;;4971899;28;20030;-66
2021/04/20 05:15:24;;;;;;;52.53;33.40;;;9.20;99.90;;;;;;4972604;28;20492;-65
2021/04/20 05:17:50;;;;;;;57.90;36.20;;;9.20;99.90;;;;;;4973077;28;20188;-64
2021/04/20 05:20:19;;;;;;;59.90;37.58;;;9.20;99.90;;;;;;4972892;28;20137;-65
2021/04/20 05:22:49;;;;;;;;;;;9.30;99.90;;;;;;4973259;28;20113;-63
2021/04/20 05:25:17;;;;;;;53.97;32.35;;;9.40;99.90;;;;;;4973512;28;19928;-66
2021/04/20 05:27:44;;;;;;;55.30;32.13;;;9.40;99.90;;;;;;4973214;28;20022;-65
2021/04/20 05:30:11;;;;;;;51.00;32.00;;;9.40;99.90;;;;;;4972664;28;20026;-65
2021/04/20 05:32:38;;;;;;;51.58;32.13;;;9.40;99.90;;;;;;4971916;28;20023;-66
2021/04/20 05:35:05;;;;;;;50.75;32.75;;;9.50;99.90;;;;;;4973073;28;20046;-65
2021/04/20 05:37:39;;;;;;;48.15;30.15;;;9.50;99.90;;;;;;4972506;28;20027;-66
2021/04/20 05:40:18;;;;;;;52.22;33.30;;;9.50;99.90;;;;;;4976078;28;20045;-65
2021/04/20 05:42:45;;;;;;;49.85;33.10;;;9.50;99.90;;;;;;4974640;28;20030;-65
2021/04/20 05:45:14;;;;;;;51.90;31.95;;;9.60;99.90;;;;;;4976030;28;20030;-65
2021/04/20 05:47:41;;;;;;;52.38;32.83;;;9.60;99.90;;;;;;4976390;28;20097;-65
2021/04/20 05:50:09;;;;;;;57.35;33.40;;;9.70;99.90;;;;;;4975886;28;20030;-67
2021/04/20 05:52:36;;;;;;;50.47;33.35;;;9.70;99.90;;;;;;4976550;28;20535;-66
2021/04/20 05:55:04;;;;;;;50.97;33.08;;;9.80;99.90;;;;;;4976255;28;20023;-65
2021/04/20 05:57:29;;;;;;;52.00;32.70;;;9.80;99.90;;;;;;4976372;28;20034;-65
2021/04/20 05:59:57;;;;;;;50.67;33.38;;;9.90;99.90;;;;;;4973669;28;20136;-66
2021/04/20 06:02:25;;;;;;;49.00;31.90;;;10.00;99.90;;;;;;4979645;28;20034;-66
2021/04/20 06:04:58;;;;;;;52.88;33.10;;;10.10;99.90;;;;;;4988132;28;20019;-66
2021/04/20 06:07:24;;;;;;;47.42;32.22;;;;;;;;;;4976111;28;20031;-67
2021/04/20 06:09:50;;;;;;;61.17;34.20;;;10.10;99.90;;;;;;4973812;28;20023;-65
2021/04/20 06:12:16;;;;;;;50.95;33.33;;;10.30;99.90;;;;;;4974380;28;20037;-66
2021/04/20 06:14:42;;;;;;;47.97;31.10;;;10.30;99.90;;;;;;4974344;28;20378;-66
2021/04/20 06:17:11;;;;;;;52.58;33.03;;;10.40;99.90;;;;;;4975126;28;20026;-67
2021/04/20 06:19:38;;;;;;;47.70;32.10;;;10.50;99.90;;;;;;4975047;28;20400;-64
2021/04/20 06:22:06;;;;;;;47.85;31.40;;;10.60;99.90;;;;;;4975632;28;20030;-66
2021/04/20 06:24:32;;;;;;;50.77;32.10;;;10.60;99.90;;;;;;4974496;28;20113;-67
2021/04/20 06:26:58;;;;;;;54.75;34.05;;;10.70;99.90;;;;;;4975271;28;20102;-66
2021/04/20 06:29:26;;;;;;;51.85;33.60;;;10.70;99.90;;;;;;4973648;28;20477;-67
2021/04/20 06:31:54;;;;;;;52.47;32.60;;;10.60;99.90;;;;;;4974726;28;20027;-67
2021/04/20 06:34:21;;;;;;;51.08;33.13;;;10.70;99.90;;;;;;4973644;28;20077;-67
2021/04/20 06:36:47;;;;;;;46.08;30.23;;;10.70;99.90;;;;;;4975013;28;20051;-61
2021/04/20 06:39:13;;;;;;;54.97;32.55;;;10.80;99.90;;;;;;4973948;28;20027;-66
2021/04/20 06:41:40;;;;;;;53.03;34.08;;;10.90;99.90;;;;;;4973729;28;20030;-66
2021/04/20 06:44:10;;;;;;;51.58;32.47;;;;;;;;;;4974722;28;20034;-65
2021/04/20 06:46:42;;;;;;;54.05;34.85;;;;;;;;;;4973890;28;20031;-66
2021/04/20 06:49:13;;;;;;;48.30;31.25;;;;;;;;;;4974023;28;20130;-65
2021/04/20 06:51:42;;;;;;;54.10;33.03;;;;;;;;;;4973830;28;20401;-66
2021/04/20 06:54:27;;;;;;;47.90;31.83;;;;;;;;;;4975012;28;20378;-65
2021/04/20 06:56:57;;;;;;;49.78;33.60;;;;;;;;;;4995062;23;20046;-65
2021/04/20 06:59:39;;;;;;;47.35;30.77;;;;;;;;;;4969982;28;20284;-63
2021/04/20 07:02:23;;;;;;;51.80;33.30;;;;;;;;;;4974411;28;20031;-64
2021/04/20 07:04:56;;;;;;;47.05;31.00;;;;;;;;;;4974355;28;20027;-65
2021/04/20 07:07:41;;;;;;;47.72;31.50;;;;;;;;;;4976396;28;20393;-63
2021/04/20 07:10:21;;;;;;;50.58;33.20;;;;;;;;;;4975245;28;20034;-64
2021/04/20 07:12:48;;;;;;;50.45;32.60;;;;;;;;;;4991196;28;20034;-63
2021/04/20 07:15:20;;;;;;;50.22;32.45;;;;;;;;;;4990021;28;20027;-64
2021/04/20 07:17:55;;;;;;;53.33;34.65;;;;;;;;;;4975613;28;20015;-64
2021/04/20 07:20:40;;;;;;;50.20;33.08;;;;;;;;;;4972788;28;20401;-58
2021/04/20 07:23:06;;;;;;;51.92;34.45;;;;;;;;;;4973623;28;20019;-60
2021/04/20 07:25:51;;;;;;;49.72;33.22;;;;;;;;;;4972388;28;20509;-57
2021/04/20 07:28:26;;;;;;;47.22;31.65;;;;;;;;;;4989254;28;20031;-58
2021/04/20 07:31:06;;;;;;;50.55;34.08;;;;;;;;;;4973225;28;20396;-59
2021/04/20 07:33:48;;;;;;;46.67;32.88;;;;;;;;;;4974158;28;20023;-61
2021/04/20 07:36:28;;;;;;;48.40;33.33;;;;;;;;;;4989494;28;20114;-61
2021/04/20 07:39:02;;;;;;;51.42;33.75;;;;;;;;;;4974317;28;20500;-59
2021/04/20 07:41:37;;;;;;;50.00;33.10;;;;;;;;;;4974838;28;20037;-60
2021/04/20 07:44:21;;;;;;;43.42;30.15;;;;;;;;;;4973187;28;20113;-58
2021/04/20 07:46:58;;;;;;;49.50;34.72;;;;;;;;;;4972843;28;20113;-58
2021/04/20 07:49:32;;;;;;;47.85;34.50;;;;;;;;;;4974353;28;20078;-58
2021/04/20 07:52:13;;;;;;;59.03;36.00;;;11.00;99.90;;;;;;4973770;28;20077;-61
2021/04/20 07:54:59;;;;;;;51.00;34.17;;;13.50;99.90;;;;;;4972933;28;20481;-58
2021/04/20 07:57:30;;;;;;;52.25;32.90;;;13.60;99.90;;;;;;4968919;28;20394;-58
2021/04/20 08:00:20;;;;;;;53.90;33.78;;;13.70;99.90;;;;;;4972805;28;20393;-59
2021/04/20 08:03:07;;;;;;;49.38;32.67;;;13.80;99.90;;;;;;4972608;28;20046;-55
2021/04/20 08:05:36;;;;;;;50.28;33.85;;;13.90;99.90;;;;;;4974038;28;20022;-59
2021/04/20 08:08:27;;;;;;;50.53;32.55;;;13.90;99.90;;;;;;4973928;28;20135;-59
2021/04/20 08:11:11;;;;;;;44.83;32.83;;;14.00;99.90;;;;;;4970729;28;20030;-59
2021/04/20 08:13:58;;;;;;;46.80;33.33;;;14.00;99.90;;;;;;4970594;28;20065;-60
2021/04/20 08:16:34;;;;;;;43.65;31.15;;;14.00;99.90;;;;;;4969919;28;20370;-61
2021/04/20 08:19:11;;;;;;;43.85;30.33;;;14.00;99.90;;;;;;4972941;28;20022;-61
2021/04/20 08:21:44;;;;;;;45.22;31.58;;;13.80;99.90;;;;;;4972342;28;20497;-61
2021/04/20 08:31:09;;;;;;;38.03;26.77;;;14.10;99.90;;;;;;4959050;28;20034;-62
2021/04/20 08:33:39;;;;;;;39.08;26.25;;;14.30;99.90;;;;;;4972563;28;20130;-60
2021/04/20 08:36:29;;;;;;;38.42;26.67;;;14.40;99.90;;;;;;4972604;28;20031;-61
2021/04/20 08:39:04;;;;;;;38.60;27.45;;;14.40;99.90;;;;;;4973725;28;20070;-62
2021/04/20 08:41:37;;;;;;;36.38;26.15;;;14.50;99.90;;;;;;4974118;28;20513;-61
2021/04/20 08:44:12;;;;;;;38.22;25.60;;;14.60;99.90;;;;;;4974087;28;20034;-60
2021/04/20 08:47:23;;;;;;;31.98;23.30;;;14.70;99.90;;;;;;4972481;28;20126;-57
2021/04/20 08:49:53;;;;;;;37.17;24.77;;;;;;;;;;4972505;28;20019;-61
2021/04/20 08:52:31;;;;;;;37.05;26.05;;;;;;;;;;4974150;28;20027;-59
2021/04/20 08:55:20;;;;;;;33.78;24.15;;;;;;;;;;4972960;28;20034;-61
2021/04/20 08:58:05;;;;;;;35.33;25.58;;;;;;;;;;4968648;28;20125;-58
2021/04/20 09:00:34;;;;;;;35.30;26.05;;;;;;;;;;4972937;28;20027;-58
2021/04/20 09:03:00;;;;;;;37.47;26.08;;;;;;;;;;4973165;28;20400;-61
2021/04/20 09:05:26;;;;;;;35.15;25.70;;;;;;;;;;4972901;28;20026;-60
2021/04/20 09:07:56;;;;;;;36.90;26.13;;;;;;;;;;4973127;28;20477;-61
2021/04/20 09:10:27;;;;;;;34.90;24.83;;;;;;;;;;4973598;28;20023;-59
2021/04/20 09:12:57;;;;;;;33.55;24.50;;;;;;;;;;4973086;28;20070;-60
2021/04/20 09:15:26;;;;;;;32.20;22.98;;;;;;;;;;4976521;28;20027;-59
2021/04/20 09:17:52;;;;;;;33.67;24.00;;;;;;;;;;4976230;28;20047;-60
2021/04/20 09:20:25;;;;;;;34.72;22.45;;;;;;;;;;4976145;28;20034;-60
2021/04/20 09:22:57;;;;;;;32.55;23.23;;;;;;;;;;4976876;28;20507;-61
2021/04/20 09:25:25;;;;;;;32.67;23.88;;;;;;;;;;4974812;28;20473;-60
2021/04/20 09:27:51;;;;;;;35.10;23.63;;;;;;;;;;4976778;28;20051;-60
2021/04/20 09:30:18;;;;;;;35.55;23.65;;;;;;;;;;4976630;28;20030;-59
2021/04/20 09:33:05;;;;;;;34.20;23.88;;;;;;;;;;4974861;28;20400;-60
2021/04/20 09:35:33;;;;;;;32.08;23.05;;;;;;;;;;4976051;28;20110;-61
2021/04/20 09:38:00;;;;;;;32.90;24.45;;;;;;;;;;4975557;28;20110;-61
2021/04/20 09:40:27;;;;;;;33.78;23.40;;;;;;;;;;4975578;28;20113;-61
2021/04/20 09:42:56;;;;;;;32.50;24.27;;;;;;;;;;4975401;28;20027;-60
2021/04/20 09:45:42;;;;;;;31.92;24.02;;;;;;;;;;4976751;28;20396;-59
2021/04/20 09:48:08;;;;;;;32.17;23.90;;;;;;;;;;4975247;28;20019;-58
2021/04/20 09:50:54;;;;;;;31.55;24.45;;;;;;;;;;4976156;28;20105;-59
2021/04/20 09:53:23;;;;;;;32.15;25.48;;;;;;;;;;4975468;28;20026;-61
2021/04/20 09:55:56;;;;;;;35.65;25.48;;;;;;;;;;4976103;28;20023;-58
2021/04/20 09:58:23;;;;;;;33.55;26.83;;;;;;;;;;4976357;28;20054;-60
2021/04/20 10:00:50;;;;;;;33.50;26.38;;;;;;;;;;4976231;28;20488;-59
2021/04/20 10:03:19;;;;;;;32.10;25.45;;;;;;;;;;4976392;28;20031;-59
2021/04/20 10:05:48;;;;;;;31.02;25.88;;;;;;;;;;4976735;28;20082;-60
2021/04/20 10:08:23;;;;;;;32.33;26.25;;;;;;;;;;4975977;28;20030;-59
2021/04/20 10:11:27;;;;;;;32.08;25.05;;;15.00;99.90;;;;;;4973960;28;20031;-55
2021/04/20 10:13:57;;;;;;;30.85;23.92;;;17.20;99.90;;;;;;4974803;28;20027;-59
2021/04/20 10:17:05;;;;;;;34.72;25.98;;;16.70;99.90;;;;;;4975842;28;20023;-59
2021/04/20 10:19:38;;;;;;;33.20;26.20;;;16.70;99.90;;;;;;5005811;28;20033;-60
2021/04/20 10:22:36;;;;;;;35.22;26.77;;;16.90;99.90;;;;;;4975407;28;20030;-57
2021/04/20 10:25:02;;;;;;;;;;;17.00;99.90;;;;;;4973989;28;20500;-55
2021/04/20 10:27:30;;;;;;;32.75;25.92;;;17.10;99.90;;;;;;4975029;28;20331;-61
2021/04/20 10:30:17;;;;;;;34.10;26.73;;;17.30;99.90;;;;;;4974135;28;20396;-57
2021/04/20 10:32:49;;;;;;;37.13;27.23;;;17.60;99.90;;;;;;4974779;28;20418;-58
2021/04/20 10:35:19;;;;;;;34.25;28.40;;;17.70;99.90;;;;;;4974277;28;20030;-59
2021/04/20 10:37:49;;;;;;;36.80;29.20;;;17.80;99.90;;;;;;4975681;28;20102;-59
2021/04/20 10:40:24;;;;;;;36.58;28.98;;;18.00;99.90;;;;;;4975180;28;20038;-58
2021/04/20 10:42:51;;;;;;;39.80;30.02;;;17.80;99.90;;;;;;4974073;28;20117;-59
2021/04/20 10:45:20;;;;;;;36.30;29.80;;;18.00;99.90;;;;;;4975323;28;20022;-60
2021/04/20 10:47:52;;;;;;;34.45;29.75;;;18.60;99.90;;;;;;4975370;28;20127;-58
2021/04/20 10:50:24;;;;;;;36.08;30.10;;;;;;;;;;4975441;28;20027;-59
2021/04/20 10:52:54;;;;;;;37.50;31.30;;;;;;;;;;4965105;28;20453;-60
2021/04/20 10:55:24;;;;;;;40.92;31.08;;;;;;;;;;4987085;28;20027;-60
2021/04/20 10:57:52;;;;;;;38.72;32.42;;;;;;;;;;4955858;29;20051;-61
2021/04/20 11:00:19;;;;;;;38.80;32.55;;;;;;;;;;4957508;28;20031;-62
2021/04/20 11:02:49;;;;;;;38.83;30.80;;;;;;;;;;4973963;28;20117;-58
2021/04/20 11:05:20;;;;;;;32.88;28.35;;;;;;;;;;4975050;28;20023;-61
2021/04/20 11:07:46;;;;;;;36.17;30.95;;;;;;;;;;4974626;28;20015;-61
2021/04/20 11:10:15;;;;;;;36.20;30.40;;;;;;;;;;4974240;28;20023;-61
2021/04/20 11:12:41;;;;;;;;;;;;;;;;;;4973624;28;20109;-61
2021/04/20 11:15:07;;;;;;;36.70;29.65;;;;;;;;;;4974749;28;19926;-61
2021/04/20 11:17:42;;;;;;;39.90;31.60;;;;;;;;;;4972992;28;20079;-62
2021/04/20 11:20:27;;;;;;;37.33;30.00;;;;;;;;;;4972587;28;20515;-61
2021/04/20 11:23:08;;;;;;;35.53;29.48;;;;;;;;;;4974521;28;20038;-62
2021/04/20 11:25:36;;;;;;;34.85;30.30;;;;;;;;;;4973248;28;20027;-60
2021/04/20 11:28:07;;;;;;;37.53;31.75;;;;;;;;;;4974464;28;20102;-61
2021/04/20 11:30:34;;;;;;;35.13;30.80;;;;;;;;;;4974158;28;20113;-63
2021/04/20 11:33:10;;;;;;;35.15;31.45;;;;;;;;;;4975111;28;20041;-63
2021/04/20 11:35:41;;;;;;;33.10;29.55;;;;;;;;;;4973557;28;20022;-62
2021/04/20 11:38:07;;;;;;;37.03;31.33;;;;;;;;;;4974612;28;20038;-61
2021/04/20 11:40:37;;;;;;;38.20;31.50;;;;;;;;;;4641038;28;10000046;-63
2021/04/20 11:43:04;;;;;;;36.55;30.20;;;;;;;;;;4990870;28;20112;-63
2021/04/20 11:45:36;;;;;;;35.65;30.10;;;;;;;;;;4989582;28;20109;-62
2021/04/20 11:48:11;;;;;;;35.97;31.27;;;18.90;99.90;;;;;;4975270;28;20023;-64
2021/04/20 11:50:54;;;;;;;37.63;31.85;;;;;;;;;;4967584;28;20248;-63
2021/04/20 11:53:21;;;;;;;36.80;30.65;;;;;;;;;;4974778;28;20463;-63
2021/04/20 11:55:50;;;;;;;36.65;32.65;;;;;;;;;;4974885;28;20037;-61
2021/04/20 11:58:28;;;;;;;36.55;32.65;;;;;;;;;;4973726;28;20042;-62
2021/04/20 12:00:58;;;;;;;35.10;30.85;;;;;;;;;;4631649;28;10000957;-61
2021/04/20 12:03:25;;;;;;;36.13;32.13;;;;;;;;;;4970169;28;20030;-65
2021/04/20 12:05:53;;;;;;;37.33;32.35;;;;;;;;;;4970366;28;20461;-63
2021/04/20 12:08:28;;;;;;;38.05;32.53;;;;;;;;;;4980729;28;20030;-63
2021/04/20 12:10:54;;;;;;;42.30;31.95;;;;;;;;;;4964312;28;20018;-59
2021/04/20 12:13:22;;;;;;;35.33;30.90;;;;;;;;;;4970531;28;20045;-63
2021/04/20 12:15:53;;;;;;;43.75;32.45;;;;;;;;;;4968622;28;20035;-63
2021/04/20 12:18:19;;;;;;;37.08;30.90;;;;;;;;;;4966766;28;20440;-61
2021/04/20 12:20:48;;;;;;;37.47;30.58;;;;;;;;;;4970547;28;20535;-63
2021/04/20 12:23:14;;;;;;;;;;;;;;;;;;4964670;28;20098;-60
2021/04/20 12:25:40;;;;;;;33.97;27.65;;;;;;;;;;4970691;28;20402;-63
2021/04/20 12:28:07;;;;;;;33.92;28.38;;;;;;;;;;4968468;28;20444;-63
2021/04/20 12:30:33;;;;;;;33.15;28.33;;;24.30;92.00;;;;;;4998085;28;20129;-63
2021/04/20 12:32:59;;;;;;;34.83;28.83;;;21.70;91.40;;;;;;4979170;28;20077;-62
2021/04/20 12:35:29;;;;;;;36.08;29.55;;;21.50;89.90;;;;;;4980005;28;20653;-62
2021/04/20 12:37:57;;;;;;;32.47;29.08;;;;;;;;;;4986770;28;20023;-59
2021/04/20 12:40:23;;;;;;;32.30;28.88;;;22.90;88.90;;;;;;4994565;28;20089;-60
2021/04/20 12:42:56;;;;;;;36.75;29.48;;;25.50;83.10;;;;;;4970718;28;20557;-60
2021/04/20 12:45:27;;;;;;;32.17;28.83;;;25.40;75.70;;;;;;4971237;28;20041;-60
2021/04/20 12:47:55;;;;;;;34.75;30.90;;;26.80;75.00;;;;;;4967584;28;20128;-61
2021/04/20 12:50:27;;;;;;;33.72;30.13;;;27.30;73.10;;;;;;4964338;28;20057;-61
2021/04/20 12:52:53;;;;;;;34.72;30.98;;;26.80;71.10;;;;;;4976588;28;20026;-60
2021/04/20 12:55:24;;;;;;;33.95;30.40;;;26.30;72.50;;;;;;4981571;28;20030;-60
2021/04/20 12:57:51;;;;;;;35.17;31.65;;;;;;;;;;5004421;23;20050;-65
2021/04/20 13:00:17;;;;;;;34.83;31.00;;;;;;;;;;4987560;28;20038;-65
2021/04/20 13:02:47;;;;;;;33.17;29.33;;;;;;;;;;4976117;28;20042;-65
2021/04/20 13:05:14;;;;;;;36.55;30.83;;;;;;;;;;4976474;28;20023;-65
2021/04/20 13:07:41;;;;;;;33.20;28.10;;;;;;;;;;4982658;28;20488;-64
2021/04/20 13:10:18;;;;;;;31.95;28.45;;;;;;;;;;4979523;28;20476;-65
2021/04/20 13:12:45;;;;;;;31.50;27.33;;;;;;;;;;4989541;28;20019;-65
2021/04/20 13:15:12;;;;;;;32.08;28.70;;;;;;;;;;4989330;28;20452;-65
2021/04/20 13:17:38;;;;;;;31.27;27.02;;;;;;;;;;4984602;28;20499;-65
2021/04/20 13:20:13;;;;;;;33.47;28.40;;;25.40;72.40;;;;;;4986069;28;20548;-64
2021/04/20 13:22:39;;;;;;;34.55;30.70;;;;;;;;;;4989926;28;20070;-64
2021/04/20 13:25:06;;;;;;;34.28;30.15;;;;;;;;;;4983222;28;20058;-68
2021/04/20 13:27:34;;;;;;;38.53;30.50;;;;;;;;;;4981018;28;20037;-65
2021/04/20 13:30:00;;;;;;;;;;;;;;;;;;4988381;28;20141;-65
2021/04/20 13:32:26;;;;;;;38.75;30.63;;;;;;;;;;4996092;28;19992;-64
2021/04/20 13:34:54;;;;;;;36.63;32.70;;;;;;;;;;4998789;28;20046;-66
2021/04/20 13:37:31;;;;;;;43.38;32.05;;;;;;;;;;4988496;28;20101;-63
2021/04/20 13:39:58;;;;;;;40.15;32.42;;;;;;;;;;4986127;28;20043;-62
2021/04/20 13:42:29;;;;;;;35.97;31.30;;;;;;;;;;4968836;28;20382;-64
2021/04/20 13:44:57;;;;;;;35.13;30.83;;;;;;;;;;4968748;28;20536;-65
2021/04/20 13:47:23;;;;;;;35.83;30.08;;;;;;;;;;4979190;28;20035;-66
2021/04/20 13:49:52;;;;;;;35.50;30.75;;;;;;;;;;4979684;28;20034;-62
2021/04/20 13:52:19;;;;;;;36.47;32.47;;;;;;;;;;4983770;28;20031;-66
2021/04/20 13:55:09;;;;;;;37.10;30.73;;;;;;;;;;4984663;28;20027;-65
2021/04/20 13:57:37;;;;;;;37.78;30.10;;;;;;;;;;4967031;28;20097;-66
2021/04/20 14:00:14;;;;;;;35.92;30.25;;;;;;;;;;4975595;28;20166;-63
2021/04/20 14:02:47;;;;;;;36.00;29.13;;;;;;;;;;4992582;28;20042;-63
2021/04/20 14:05:14;;;;;;;31.70;26.83;;;;;;;;;;4976079;28;20459;-63